sensor_id;sensor_type;location;lat;lon;timestamp;P1;durP1;ratioP1;P2;durP2;ratioP2
35294;SDS011;21413;48.032;7.764;2023-03-19T00:01:55;3.83;;;2.93;;
35294;SDS011;21413;48.032;7.764;2023-03-19T00:04:21;3.53;;;3.43;;
35294;SDS011;21413;48.032;7.764;2023-03-19T00:06:48;3.50;;;3.33;;
35294;SDS011;21413;48.032;7.764;2023-03-19T00:09:17;3.73;;;3.43;;
35294;SDS011;21413;48.032;7.764;2023-03-19T00:11:46;3.90;;;3.70;;
35294;SDS011;21413;48.032;7.764;2023-03-19T00:14:15;4.60;;;4.07;;
35294;SDS011;21413;48.032;7.764;2023-03-19T00:16:41;3.67;;;3.40;;
35294;SDS011;21413;48.032;7.764;2023-03-19T00:19:07;3.37;;;3.17;;
35294;SDS011;21413;48.032;7.764;2023-03-19T00:21:34;3.70;;;3.40;;
35294;SDS011;21413;48.032;7.764;2023-03-19T00:24:00;6.50;;;3.70;;
35294;SDS011;21413;48.032;7.764;2023-03-19T00:26:30;4.30;;;3.17;;
35294;SDS011;21413;48.032;7.764;2023-03-19T00:28:56;3.20;;;3.00;;
35294;SDS011;21413;48.032;7.764;2023-03-19T00:31:25;3.33;;;2.83;;
35294;SDS011;21413;48.032;7.764;2023-03-19T00:33:55;2.97;;;2.77;;
35294;SDS011;21413;48.032;7.764;2023-03-19T00:36:21;3.40;;;3.20;;
35294;SDS011;21413;48.032;7.764;2023-03-19T00:38:47;3.70;;;3.40;;
35294;SDS011;21413;48.032;7.764;2023-03-19T00:41:13;3.67;;;3.30;;
35294;SDS011;21413;48.032;7.764;2023-03-19T00:43:41;3.83;;;3.13;;
35294;SDS011;21413;48.032;7.764;2023-03-19T00:46:07;9.97;;;3.17;;
35294;SDS011;21413;48.032;7.764;2023-03-19T00:48:33;8.83;;;3.30;;
35294;SDS011;21413;48.032;7.764;2023-03-19T00:51:03;2.90;;;2.70;;
35294;SDS011;21413;48.032;7.764;2023-03-19T00:53:30;3.63;;;2.47;;
35294;SDS011;21413;48.032;7.764;2023-03-19T00:55:56;5.07;;;2.70;;
35294;SDS011;21413;48.032;7.764;2023-03-19T00:58:22;2.37;;;2.17;;
35294;SDS011;21413;48.032;7.764;2023-03-19T01:00:50;2.63;;;2.43;;
35294;SDS011;21413;48.032;7.764;2023-03-19T01:03:17;2.23;;;2.03;;
35294;SDS011;21413;48.032;7.764;2023-03-19T01:05:43;2.40;;;2.10;;
35294;SDS011;21413;48.032;7.764;2023-03-19T01:08:13;2.60;;;2.50;;
35294;SDS011;21413;48.032;7.764;2023-03-19T01:10:39;2.27;;;2.13;;
35294;SDS011;21413;48.032;7.764;2023-03-19T01:13:05;2.60;;;2.40;;
35294;SDS011;21413;48.032;7.764;2023-03-19T01:15:35;2.50;;;2.40;;
35294;SDS011;21413;48.032;7.764;2023-03-19T01:18:01;4.13;;;2.60;;
35294;SDS011;21413;48.032;7.764;2023-03-19T01:20:27;3.03;;;2.63;;
35294;SDS011;21413;48.032;7.764;2023-03-19T01:22:53;2.57;;;2.47;;
35294;SDS011;21413;48.032;7.764;2023-03-19T01:25:20;4.50;;;3.60;;
35294;SDS011;21413;48.032;7.764;2023-03-19T01:27:46;3.53;;;2.30;;
35294;SDS011;21413;48.032;7.764;2023-03-19T01:30:12;3.23;;;2.90;;
35294;SDS011;21413;48.032;7.764;2023-03-19T01:32:38;3.23;;;3.03;;
35294;SDS011;21413;48.032;7.764;2023-03-19T01:35:04;3.13;;;2.50;;
35294;SDS011;21413;48.032;7.764;2023-03-19T01:37:33;3.03;;;2.93;;
35294;SDS011;21413;48.032;7.764;2023-03-19T01:39:59;3.43;;;3.23;;
35294;SDS011;21413;48.032;7.764;2023-03-19T01:42:25;3.23;;;3.00;;
35294;SDS011;21413;48.032;7.764;2023-03-19T01:44:51;3.43;;;3.23;;
35294;SDS011;21413;48.032;7.764;2023-03-19T01:47:20;3.30;;;3.00;;
35294;SDS011;21413;48.032;7.764;2023-03-19T01:49:53;2.80;;;2.60;;
35294;SDS011;21413;48.032;7.764;2023-03-19T01:52:20;6.00;;;3.10;;
35294;SDS011;21413;48.032;7.764;2023-03-19T01:54:46;7.83;;;2.80;;
35294;SDS011;21413;48.032;7.764;2023-03-19T01:57:13;3.50;;;2.40;;
35294;SDS011;21413;48.032;7.764;2023-03-19T01:59:43;2.53;;;2.43;;
35294;SDS011;21413;48.032;7.764;2023-03-19T02:02:14;3.30;;;2.60;;
35294;SDS011;21413;48.032;7.764;2023-03-19T02:04:41;2.33;;;2.33;;
35294;SDS011;21413;48.032;7.764;2023-03-19T02:07:08;2.23;;;2.13;;
35294;SDS011;21413;48.032;7.764;2023-03-19T02:09:34;3.13;;;2.80;;
35294;SDS011;21413;48.032;7.764;2023-03-19T02:12:01;2.60;;;2.50;;
35294;SDS011;21413;48.032;7.764;2023-03-19T02:14:27;3.30;;;3.10;;
35294;SDS011;21413;48.032;7.764;2023-03-19T02:16:53;5.17;;;3.10;;
35294;SDS011;21413;48.032;7.764;2023-03-19T02:19:26;3.03;;;2.83;;
35294;SDS011;21413;48.032;7.764;2023-03-19T02:21:53;3.07;;;2.67;;
35294;SDS011;21413;48.032;7.764;2023-03-19T02:24:23;2.73;;;2.60;;
35294;SDS011;21413;48.032;7.764;2023-03-19T02:26:49;2.57;;;2.43;;
35294;SDS011;21413;48.032;7.764;2023-03-19T02:29:15;3.43;;;3.13;;
35294;SDS011;21413;48.032;7.764;2023-03-19T02:31:41;3.07;;;2.97;;
35294;SDS011;21413;48.032;7.764;2023-03-19T02:36:43;3.13;;;2.93;;
35294;SDS011;21413;48.032;7.764;2023-03-19T02:39:19;3.47;;;3.17;;
35294;SDS011;21413;48.032;7.764;2023-03-19T02:41:46;3.23;;;3.00;;
35294;SDS011;21413;48.032;7.764;2023-03-19T02:44:13;3.17;;;2.97;;
35294;SDS011;21413;48.032;7.764;2023-03-19T02:46:46;5.83;;;3.00;;
35294;SDS011;21413;48.032;7.764;2023-03-19T02:49:12;3.10;;;2.57;;
35294;SDS011;21413;48.032;7.764;2023-03-19T02:51:39;3.33;;;3.00;;
35294;SDS011;21413;48.032;7.764;2023-03-19T02:54:06;2.70;;;2.60;;
35294;SDS011;21413;48.032;7.764;2023-03-19T02:56:32;3.67;;;2.77;;
35294;SDS011;21413;48.032;7.764;2023-03-19T02:59:00;2.53;;;2.43;;
35294;SDS011;21413;48.032;7.764;2023-03-19T03:01:28;2.67;;;2.47;;
35294;SDS011;21413;48.032;7.764;2023-03-19T03:03:54;2.40;;;2.10;;
35294;SDS011;21413;48.032;7.764;2023-03-19T03:06:20;2.90;;;2.57;;
35294;SDS011;21413;48.032;7.764;2023-03-19T03:08:49;2.57;;;2.40;;
35294;SDS011;21413;48.032;7.764;2023-03-19T03:11:16;3.37;;;2.80;;
35294;SDS011;21413;48.032;7.764;2023-03-19T03:13:41;2.93;;;2.70;;
35294;SDS011;21413;48.032;7.764;2023-03-19T03:16:07;2.60;;;2.40;;
35294;SDS011;21413;48.032;7.764;2023-03-19T03:18:33;2.10;;;1.90;;
35294;SDS011;21413;48.032;7.764;2023-03-19T03:21:00;2.13;;;1.80;;
35294;SDS011;21413;48.032;7.764;2023-03-19T03:23:27;2.03;;;1.93;;
35294;SDS011;21413;48.032;7.764;2023-03-19T03:25:55;2.97;;;1.50;;
35294;SDS011;21413;48.032;7.764;2023-03-19T03:28:23;1.77;;;1.67;;
35294;SDS011;21413;48.032;7.764;2023-03-19T03:30:49;2.80;;;2.07;;
35294;SDS011;21413;48.032;7.764;2023-03-19T03:33:15;2.80;;;1.97;;
35294;SDS011;21413;48.032;7.764;2023-03-19T03:35:42;1.90;;;1.80;;
35294;SDS011;21413;48.032;7.764;2023-03-19T03:38:10;2.13;;;1.63;;
35294;SDS011;21413;48.032;7.764;2023-03-19T03:40:36;1.97;;;1.87;;
35294;SDS011;21413;48.032;7.764;2023-03-19T03:43:02;2.90;;;1.83;;
35294;SDS011;21413;48.032;7.764;2023-03-19T03:45:28;3.50;;;2.47;;
35294;SDS011;21413;48.032;7.764;2023-03-19T03:47:54;2.13;;;2.00;;
35294;SDS011;21413;48.032;7.764;2023-03-19T03:50:23;2.33;;;2.23;;
35294;SDS011;21413;48.032;7.764;2023-03-19T03:52:49;2.50;;;2.40;;
35294;SDS011;21413;48.032;7.764;2023-03-19T03:55:15;2.27;;;2.07;;
35294;SDS011;21413;48.032;7.764;2023-03-19T03:57:41;2.80;;;2.70;;
35294;SDS011;21413;48.032;7.764;2023-03-19T04:00:07;2.80;;;2.60;;
35294;SDS011;21413;48.032;7.764;2023-03-19T04:02:33;2.50;;;2.40;;
35294;SDS011;21413;48.032;7.764;2023-03-19T04:04:59;6.83;;;2.37;;
35294;SDS011;21413;48.032;7.764;2023-03-19T04:07:26;2.20;;;2.13;;
35294;SDS011;21413;48.032;7.764;2023-03-19T04:09:52;1.80;;;1.70;;
35294;SDS011;21413;48.032;7.764;2023-03-19T04:12:18;1.90;;;1.80;;
35294;SDS011;21413;48.032;7.764;2023-03-19T04:14:46;2.30;;;2.20;;
35294;SDS011;21413;48.032;7.764;2023-03-19T04:17:12;2.33;;;2.20;;
35294;SDS011;21413;48.032;7.764;2023-03-19T04:19:38;1.90;;;1.77;;
35294;SDS011;21413;48.032;7.764;2023-03-19T04:22:04;1.60;;;1.50;;
35294;SDS011;21413;48.032;7.764;2023-03-19T04:24:31;1.50;;;1.50;;
35294;SDS011;21413;48.032;7.764;2023-03-19T04:27:00;2.20;;;1.60;;
35294;SDS011;21413;48.032;7.764;2023-03-19T04:29:28;2.63;;;1.57;;
35294;SDS011;21413;48.032;7.764;2023-03-19T04:31:57;4.23;;;1.63;;
35294;SDS011;21413;48.032;7.764;2023-03-19T04:34:23;2.00;;;1.87;;
35294;SDS011;21413;48.032;7.764;2023-03-19T04:36:49;1.70;;;1.60;;
35294;SDS011;21413;48.032;7.764;2023-03-19T04:39:15;1.97;;;1.87;;
35294;SDS011;21413;48.032;7.764;2023-03-19T04:41:42;1.87;;;1.77;;
35294;SDS011;21413;48.032;7.764;2023-03-19T04:44:09;5.23;;;1.67;;
35294;SDS011;21413;48.032;7.764;2023-03-19T04:46:35;2.10;;;1.80;;
35294;SDS011;21413;48.032;7.764;2023-03-19T04:49:03;1.80;;;1.70;;
35294;SDS011;21413;48.032;7.764;2023-03-19T04:51:29;2.17;;;1.90;;
35294;SDS011;21413;48.032;7.764;2023-03-19T04:53:57;2.13;;;1.90;;
35294;SDS011;21413;48.032;7.764;2023-03-19T04:56:24;5.43;;;1.80;;
35294;SDS011;21413;48.032;7.764;2023-03-19T04:58:52;2.30;;;1.60;;
35294;SDS011;21413;48.032;7.764;2023-03-19T05:01:18;2.57;;;1.40;;
35294;SDS011;21413;48.032;7.764;2023-03-19T05:03:44;1.73;;;1.73;;
35294;SDS011;21413;48.032;7.764;2023-03-19T05:06:11;1.87;;;1.77;;
35294;SDS011;21413;48.032;7.764;2023-03-19T05:08:37;1.73;;;1.67;;
35294;SDS011;21413;48.032;7.764;2023-03-19T05:11:03;2.93;;;1.70;;
35294;SDS011;21413;48.032;7.764;2023-03-19T05:13:29;2.30;;;1.50;;
35294;SDS011;21413;48.032;7.764;2023-03-19T05:15:55;1.90;;;1.80;;
35294;SDS011;21413;48.032;7.764;2023-03-19T05:18:21;1.87;;;1.77;;
35294;SDS011;21413;48.032;7.764;2023-03-19T05:20:47;5.10;;;1.50;;
35294;SDS011;21413;48.032;7.764;2023-03-19T05:23:13;2.00;;;1.77;;
35294;SDS011;21413;48.032;7.764;2023-03-19T05:25:39;1.90;;;1.80;;
35294;SDS011;21413;48.032;7.764;2023-03-19T05:28:06;2.10;;;1.90;;
35294;SDS011;21413;48.032;7.764;2023-03-19T05:30:34;1.97;;;1.70;;
35294;SDS011;21413;48.032;7.764;2023-03-19T05:33:03;4.27;;;3.87;;
35294;SDS011;21413;48.032;7.764;2023-03-19T05:35:29;1.90;;;1.80;;
35294;SDS011;21413;48.032;7.764;2023-03-19T05:37:55;4.00;;;1.70;;
35294;SDS011;21413;48.032;7.764;2023-03-19T05:40:22;5.83;;;2.07;;
35294;SDS011;21413;48.032;7.764;2023-03-19T05:42:48;2.20;;;2.10;;
35294;SDS011;21413;48.032;7.764;2023-03-19T05:45:15;2.03;;;1.93;;
35294;SDS011;21413;48.032;7.764;2023-03-19T05:47:41;1.83;;;1.50;;
35294;SDS011;21413;48.032;7.764;2023-03-19T05:50:09;2.67;;;2.00;;
35294;SDS011;21413;48.032;7.764;2023-03-19T05:52:36;3.13;;;1.60;;
35294;SDS011;21413;48.032;7.764;2023-03-19T05:55:02;2.00;;;1.80;;
35294;SDS011;21413;48.032;7.764;2023-03-19T05:57:28;2.70;;;1.67;;
35294;SDS011;21413;48.032;7.764;2023-03-19T05:59:54;2.33;;;1.70;;
35294;SDS011;21413;48.032;7.764;2023-03-19T06:02:20;2.10;;;2.00;;
35294;SDS011;21413;48.032;7.764;2023-03-19T06:04:46;2.50;;;2.37;;
35294;SDS011;21413;48.032;7.764;2023-03-19T06:07:15;5.03;;;2.00;;
35294;SDS011;21413;48.032;7.764;2023-03-19T06:09:41;1.90;;;1.80;;
35294;SDS011;21413;48.032;7.764;2023-03-19T06:12:07;2.63;;;2.43;;
35294;SDS011;21413;48.032;7.764;2023-03-19T06:14:33;2.27;;;1.97;;
35294;SDS011;21413;48.032;7.764;2023-03-19T06:16:59;3.27;;;1.43;;
35294;SDS011;21413;48.032;7.764;2023-03-19T06:19:25;5.00;;;2.10;;
35294;SDS011;21413;48.032;7.764;2023-03-19T06:21:51;4.87;;;2.13;;
35294;SDS011;21413;48.032;7.764;2023-03-19T06:24:17;1.80;;;1.70;;
35294;SDS011;21413;48.032;7.764;2023-03-19T06:26:43;3.50;;;2.00;;
35294;SDS011;21413;48.032;7.764;2023-03-19T06:29:09;2.00;;;1.80;;
35294;SDS011;21413;48.032;7.764;2023-03-19T06:31:38;5.93;;;4.63;;
35294;SDS011;21413;48.032;7.764;2023-03-19T06:34:05;3.23;;;2.10;;
35294;SDS011;21413;48.032;7.764;2023-03-19T06:36:31;2.20;;;1.93;;
35294;SDS011;21413;48.032;7.764;2023-03-19T06:38:57;1.70;;;1.70;;
35294;SDS011;21413;48.032;7.764;2023-03-19T06:41:23;1.60;;;1.60;;
35294;SDS011;21413;48.032;7.764;2023-03-19T06:43:50;1.73;;;1.63;;
35294;SDS011;21413;48.032;7.764;2023-03-19T06:46:16;1.70;;;1.70;;
35294;SDS011;21413;48.032;7.764;2023-03-19T06:48:44;1.77;;;1.67;;
35294;SDS011;21413;48.032;7.764;2023-03-19T06:51:13;1.57;;;1.57;;
35294;SDS011;21413;48.032;7.764;2023-03-19T06:53:39;3.70;;;2.33;;
35294;SDS011;21413;48.032;7.764;2023-03-19T06:56:05;7.23;;;5.33;;
35294;SDS011;21413;48.032;7.764;2023-03-19T06:58:31;3.37;;;3.17;;
35294;SDS011;21413;48.032;7.764;2023-03-19T07:01:00;2.67;;;2.50;;
35294;SDS011;21413;48.032;7.764;2023-03-19T07:03:26;2.30;;;2.20;;
35294;SDS011;21413;48.032;7.764;2023-03-19T07:05:54;1.87;;;1.87;;
35294;SDS011;21413;48.032;7.764;2023-03-19T07:08:20;3.50;;;1.80;;
35294;SDS011;21413;48.032;7.764;2023-03-19T07:10:46;2.30;;;1.63;;
35294;SDS011;21413;48.032;7.764;2023-03-19T07:13:12;2.03;;;2.03;;
35294;SDS011;21413;48.032;7.764;2023-03-19T07:15:38;2.40;;;2.30;;
35294;SDS011;21413;48.032;7.764;2023-03-19T07:18:04;4.40;;;2.67;;
35294;SDS011;21413;48.032;7.764;2023-03-19T07:20:31;3.73;;;2.70;;
35294;SDS011;21413;48.032;7.764;2023-03-19T07:22:56;2.97;;;2.70;;
35294;SDS011;21413;48.032;7.764;2023-03-19T07:25:22;2.70;;;2.50;;
35294;SDS011;21413;48.032;7.764;2023-03-19T07:27:51;2.93;;;2.23;;
35294;SDS011;21413;48.032;7.764;2023-03-19T07:30:19;2.93;;;2.83;;
35294;SDS011;21413;48.032;7.764;2023-03-19T07:32:45;2.60;;;2.50;;
35294;SDS011;21413;48.032;7.764;2023-03-19T07:35:11;2.67;;;2.57;;
35294;SDS011;21413;48.032;7.764;2023-03-19T07:37:38;3.03;;;2.83;;
35294;SDS011;21413;48.032;7.764;2023-03-19T07:40:05;6.63;;;2.30;;
35294;SDS011;21413;48.032;7.764;2023-03-19T07:42:33;5.50;;;3.20;;
35294;SDS011;21413;48.032;7.764;2023-03-19T07:45:00;3.10;;;2.70;;
35294;SDS011;21413;48.032;7.764;2023-03-19T07:47:26;3.53;;;2.63;;
35294;SDS011;21413;48.032;7.764;2023-03-19T07:49:52;2.70;;;2.60;;
35294;SDS011;21413;48.032;7.764;2023-03-19T07:52:18;3.37;;;2.83;;
35294;SDS011;21413;48.032;7.764;2023-03-19T07:54:47;2.17;;;2.07;;
35294;SDS011;21413;48.032;7.764;2023-03-19T07:57:14;3.87;;;2.70;;
35294;SDS011;21413;48.032;7.764;2023-03-19T07:59:40;3.00;;;2.80;;
35294;SDS011;21413;48.032;7.764;2023-03-19T08:02:09;3.23;;;2.90;;
35294;SDS011;21413;48.032;7.764;2023-03-19T08:04:35;3.00;;;2.80;;
35294;SDS011;21413;48.032;7.764;2023-03-19T08:07:01;2.90;;;2.70;;
35294;SDS011;21413;48.032;7.764;2023-03-19T08:09:29;3.63;;;2.60;;
35294;SDS011;21413;48.032;7.764;2023-03-19T08:11:58;2.73;;;2.53;;
35294;SDS011;21413;48.032;7.764;2023-03-19T08:14:26;4.80;;;2.60;;
35294;SDS011;21413;48.032;7.764;2023-03-19T08:16:55;3.33;;;3.10;;
35294;SDS011;21413;48.032;7.764;2023-03-19T08:19:23;3.17;;;2.90;;
35294;SDS011;21413;48.032;7.764;2023-03-19T08:21:52;6.70;;;3.10;;
35294;SDS011;21413;48.032;7.764;2023-03-19T08:24:18;9.33;;;3.20;;
35294;SDS011;21413;48.032;7.764;2023-03-19T08:26:44;5.90;;;2.60;;
35294;SDS011;21413;48.032;7.764;2023-03-19T08:29:12;2.60;;;2.40;;
35294;SDS011;21413;48.032;7.764;2023-03-19T08:31:38;7.53;;;3.00;;
35294;SDS011;21413;48.032;7.764;2023-03-19T08:34:05;2.97;;;2.87;;
35294;SDS011;21413;48.032;7.764;2023-03-19T08:36:35;4.10;;;2.73;;
35294;SDS011;21413;48.032;7.764;2023-03-19T08:39:01;3.00;;;2.80;;
35294;SDS011;21413;48.032;7.764;2023-03-19T08:41:30;8.87;;;2.97;;
35294;SDS011;21413;48.032;7.764;2023-03-19T08:43:56;2.60;;;2.40;;
35294;SDS011;21413;48.032;7.764;2023-03-19T08:46:22;2.67;;;2.47;;
35294;SDS011;21413;48.032;7.764;2023-03-19T08:48:51;3.03;;;2.70;;
35294;SDS011;21413;48.032;7.764;2023-03-19T08:51:17;4.37;;;2.83;;
35294;SDS011;21413;48.032;7.764;2023-03-19T08:53:50;3.33;;;3.00;;
35294;SDS011;21413;48.032;7.764;2023-03-19T08:56:18;5.23;;;2.60;;
35294;SDS011;21413;48.032;7.764;2023-03-19T08:58:44;11.80;;;6.10;;
35294;SDS011;21413;48.032;7.764;2023-03-19T09:01:11;3.57;;;3.27;;
35294;SDS011;21413;48.032;7.764;2023-03-19T09:03:38;8.20;;;7.50;;
35294;SDS011;21413;48.032;7.764;2023-03-19T09:06:05;3.37;;;3.00;;
35294;SDS011;21413;48.032;7.764;2023-03-19T09:08:31;3.17;;;2.53;;
35294;SDS011;21413;48.032;7.764;2023-03-19T09:10:58;6.67;;;3.37;;
35294;SDS011;21413;48.032;7.764;2023-03-19T09:13:24;3.60;;;2.47;;
35294;SDS011;21413;48.032;7.764;2023-03-19T09:15:50;6.50;;;3.03;;
35294;SDS011;21413;48.032;7.764;2023-03-19T09:18:16;3.53;;;2.77;;
35294;SDS011;21413;48.032;7.764;2023-03-19T09:20:47;8.50;;;3.40;;
35294;SDS011;21413;48.032;7.764;2023-03-19T09:23:13;6.33;;;2.57;;
35294;SDS011;21413;48.032;7.764;2023-03-19T09:25:42;5.53;;;3.33;;
35294;SDS011;21413;48.032;7.764;2023-03-19T09:28:08;3.87;;;3.10;;
35294;SDS011;21413;48.032;7.764;2023-03-19T09:30:34;4.43;;;2.63;;
35294;SDS011;21413;48.032;7.764;2023-03-19T09:33:00;3.83;;;2.20;;
35294;SDS011;21413;48.032;7.764;2023-03-19T09:35:26;2.70;;;2.50;;
35294;SDS011;21413;48.032;7.764;2023-03-19T09:37:56;2.90;;;2.70;;
35294;SDS011;21413;48.032;7.764;2023-03-19T09:40:26;3.70;;;2.73;;
35294;SDS011;21413;48.032;7.764;2023-03-19T09:45:39;4.43;;;2.90;;
35294;SDS011;21413;48.032;7.764;2023-03-19T09:48:11;4.27;;;2.80;;
35294;SDS011;21413;48.032;7.764;2023-03-19T09:50:39;3.07;;;2.77;;
35294;SDS011;21413;48.032;7.764;2023-03-19T09:57:57;3.97;;;2.70;;
35294;SDS011;21413;48.032;7.764;2023-03-19T10:00:26;2.83;;;2.60;;
35294;SDS011;21413;48.032;7.764;2023-03-19T10:08:36;4.20;;;2.90;;
35294;SDS011;21413;48.032;7.764;2023-03-19T10:13:52;2.30;;;2.20;;
35294;SDS011;21413;48.032;7.764;2023-03-19T10:16:23;2.80;;;2.60;;
35294;SDS011;21413;48.032;7.764;2023-03-19T10:18:50;3.67;;;2.37;;
35294;SDS011;21413;48.032;7.764;2023-03-19T10:21:19;6.53;;;3.07;;
35294;SDS011;21413;48.032;7.764;2023-03-19T10:23:56;1.93;;;1.80;;
35294;SDS011;21413;48.032;7.764;2023-03-19T10:26:28;1.90;;;1.80;;
35294;SDS011;21413;48.032;7.764;2023-03-19T10:29:03;1.97;;;1.80;;
35294;SDS011;21413;48.032;7.764;2023-03-19T10:34:10;2.03;;;1.87;;
35294;SDS011;21413;48.032;7.764;2023-03-19T10:36:41;1.83;;;1.20;;
35294;SDS011;21413;48.032;7.764;2023-03-19T10:39:07;1.47;;;1.47;;
35294;SDS011;21413;48.032;7.764;2023-03-19T10:41:37;1.93;;;1.70;;
35294;SDS011;21413;48.032;7.764;2023-03-19T10:44:09;1.90;;;1.80;;
35294;SDS011;21413;48.032;7.764;2023-03-19T10:46:37;2.27;;;2.17;;
35294;SDS011;21413;48.032;7.764;2023-03-19T10:49:13;5.20;;;2.20;;
35294;SDS011;21413;48.032;7.764;2023-03-19T10:51:46;2.17;;;2.07;;
35294;SDS011;21413;48.032;7.764;2023-03-19T10:54:17;2.00;;;1.90;;
35294;SDS011;21413;48.032;7.764;2023-03-19T10:56:47;2.53;;;1.97;;
35294;SDS011;21413;48.032;7.764;2023-03-19T10:59:24;3.10;;;2.33;;
35294;SDS011;21413;48.032;7.764;2023-03-19T11:01:58;2.00;;;1.90;;
35294;SDS011;21413;48.032;7.764;2023-03-19T11:04:25;2.17;;;2.03;;
35294;SDS011;21413;48.032;7.764;2023-03-19T11:07:07;2.00;;;1.90;;
35294;SDS011;21413;48.032;7.764;2023-03-19T11:09:35;3.70;;;2.00;;
35294;SDS011;21413;48.032;7.764;2023-03-19T11:14:45;3.40;;;2.17;;
35294;SDS011;21413;48.032;7.764;2023-03-19T11:20:17;2.03;;;1.83;;
35294;SDS011;21413;48.032;7.764;2023-03-19T11:22:47;2.57;;;1.77;;
35294;SDS011;21413;48.032;7.764;2023-03-19T11:27:41;1.90;;;1.80;;
35294;SDS011;21413;48.032;7.764;2023-03-19T11:30:12;2.20;;;1.73;;
35294;SDS011;21413;48.032;7.764;2023-03-19T11:35:07;1.83;;;1.70;;
35294;SDS011;21413;48.032;7.764;2023-03-19T11:40:42;2.33;;;1.90;;
35294;SDS011;21413;48.032;7.764;2023-03-19T12:24:43;4.10;;;2.40;;
35294;SDS011;21413;48.032;7.764;2023-03-19T12:27:24;1.90;;;1.70;;
35294;SDS011;21413;48.032;7.764;2023-03-19T12:34:57;1.43;;;1.37;;
35294;SDS011;21413;48.032;7.764;2023-03-19T12:42:42;1.60;;;1.50;;
35294;SDS011;21413;48.032;7.764;2023-03-19T12:45:23;1.50;;;1.40;;
35294;SDS011;21413;48.032;7.764;2023-03-19T12:47:53;3.13;;;1.80;;
35294;SDS011;21413;48.032;7.764;2023-03-19T12:50:22;2.10;;;1.67;;
35294;SDS011;21413;48.032;7.764;2023-03-19T12:52:50;2.00;;;1.90;;
35294;SDS011;21413;48.032;7.764;2023-03-19T12:55:32;2.93;;;1.90;;
35294;SDS011;21413;48.032;7.764;2023-03-19T13:00:31;2.47;;;2.10;;
35294;SDS011;21413;48.032;7.764;2023-03-19T13:05:44;1.70;;;1.60;;
35294;SDS011;21413;48.032;7.764;2023-03-19T13:11:02;3.97;;;2.27;;
35294;SDS011;21413;48.032;7.764;2023-03-19T13:13:41;1.40;;;1.30;;
35294;SDS011;21413;48.032;7.764;2023-03-19T13:16:18;2.20;;;1.60;;
35294;SDS011;21413;48.032;7.764;2023-03-19T13:23:42;1.70;;;1.33;;
35294;SDS011;21413;48.032;7.764;2023-03-19T13:26:11;1.40;;;1.40;;
35294;SDS011;21413;48.032;7.764;2023-03-19T13:28:52;3.37;;;1.80;;
35294;SDS011;21413;48.032;7.764;2023-03-19T13:31:25;2.77;;;1.60;;
35294;SDS011;21413;48.032;7.764;2023-03-19T13:33:59;1.83;;;1.63;;
35294;SDS011;21413;48.032;7.764;2023-03-19T13:36:35;2.63;;;1.67;;
35294;SDS011;21413;48.032;7.764;2023-03-19T13:39:10;1.87;;;1.77;;
35294;SDS011;21413;48.032;7.764;2023-03-19T13:46:49;2.33;;;2.10;;
35294;SDS011;21413;48.032;7.764;2023-03-19T13:49:25;1.70;;;1.60;;
35294;SDS011;21413;48.032;7.764;2023-03-19T13:54:50;1.73;;;1.40;;
35294;SDS011;21413;48.032;7.764;2023-03-19T14:01:02;1.63;;;1.50;;
35294;SDS011;21413;48.032;7.764;2023-03-19T14:16:43;1.33;;;1.23;;
35294;SDS011;21413;48.032;7.764;2023-03-19T14:18:51;3.70;;;1.50;;
35294;SDS011;21413;48.032;7.764;2023-03-19T14:21:33;10.40;;;1.83;;
35294;SDS011;21413;48.032;7.764;2023-03-19T14:26:44;1.63;;;1.53;;
35294;SDS011;21413;48.032;7.764;2023-03-19T14:29:12;1.77;;;1.67;;
35294;SDS011;21413;48.032;7.764;2023-03-19T14:31:44;1.60;;;1.50;;
35294;SDS011;21413;48.032;7.764;2023-03-19T14:34:23;1.43;;;1.33;;
35294;SDS011;21413;48.032;7.764;2023-03-19T14:39:24;1.37;;;1.37;;
35294;SDS011;21413;48.032;7.764;2023-03-19T14:41:55;1.27;;;1.20;;
35294;SDS011;21413;48.032;7.764;2023-03-19T14:44:38;1.23;;;1.13;;
35294;SDS011;21413;48.032;7.764;2023-03-19T14:57:25;1.20;;;1.10;;
35294;SDS011;21413;48.032;7.764;2023-03-19T14:59:54;1.87;;;1.80;;
35294;SDS011;21413;48.032;7.764;2023-03-19T15:04:49;1.27;;;1.23;;
35294;SDS011;21413;48.032;7.764;2023-03-19T15:07:17;0.97;;;0.97;;
35294;SDS011;21413;48.032;7.764;2023-03-19T15:09:43;1.50;;;1.40;;
35294;SDS011;21413;48.032;7.764;2023-03-19T15:17:10;1.73;;;1.50;;
35294;SDS011;21413;48.032;7.764;2023-03-19T15:19:40;2.73;;;1.50;;
35294;SDS011;21413;48.032;7.764;2023-03-19T15:22:11;1.47;;;1.30;;
35294;SDS011;21413;48.032;7.764;2023-03-19T15:24:37;1.30;;;1.30;;
35294;SDS011;21413;48.032;7.764;2023-03-19T15:29:41;1.13;;;1.03;;
35294;SDS011;21413;48.032;7.764;2023-03-19T15:32:07;1.50;;;1.40;;
35294;SDS011;21413;48.032;7.764;2023-03-19T15:34:34;1.40;;;1.40;;
35294;SDS011;21413;48.032;7.764;2023-03-19T15:37:05;1.13;;;1.13;;
35294;SDS011;21413;48.032;7.764;2023-03-19T15:39:46;1.60;;;1.17;;
35294;SDS011;21413;48.032;7.764;2023-03-19T15:42:14;1.77;;;1.67;;
35294;SDS011;21413;48.032;7.764;2023-03-19T15:44:45;1.47;;;1.37;;
35294;SDS011;21413;48.032;7.764;2023-03-19T15:47:16;1.50;;;1.23;;
35294;SDS011;21413;48.032;7.764;2023-03-19T15:50:04;1.20;;;1.20;;
35294;SDS011;21413;48.032;7.764;2023-03-19T15:52:36;2.10;;;2.00;;
35294;SDS011;21413;48.032;7.764;2023-03-19T15:55:03;2.10;;;1.60;;
35294;SDS011;21413;48.032;7.764;2023-03-19T15:57:30;1.13;;;1.13;;
35294;SDS011;21413;48.032;7.764;2023-03-19T15:59:58;1.70;;;1.60;;
35294;SDS011;21413;48.032;7.764;2023-03-19T17:27:28;2.77;;;2.57;;
35294;SDS011;21413;48.032;7.764;2023-03-19T17:29:55;2.43;;;2.33;;
35294;SDS011;21413;48.032;7.764;2023-03-19T17:32:27;2.30;;;2.10;;
35294;SDS011;21413;48.032;7.764;2023-03-19T17:34:55;2.23;;;2.13;;
35294;SDS011;21413;48.032;7.764;2023-03-19T17:37:21;2.60;;;2.20;;
35294;SDS011;21413;48.032;7.764;2023-03-19T17:39:47;2.10;;;2.10;;
35294;SDS011;21413;48.032;7.764;2023-03-19T17:42:17;8.10;;;2.77;;
35294;SDS011;21413;48.032;7.764;2023-03-19T17:44:43;3.30;;;2.90;;
35294;SDS011;21413;48.032;7.764;2023-03-19T17:47:09;2.50;;;2.37;;
35294;SDS011;21413;48.032;7.764;2023-03-19T17:49:36;3.43;;;2.73;;
35294;SDS011;21413;48.032;7.764;2023-03-19T17:52:04;2.87;;;2.77;;
35294;SDS011;21413;48.032;7.764;2023-03-19T17:54:31;2.40;;;2.30;;
35294;SDS011;21413;48.032;7.764;2023-03-19T17:56:56;3.20;;;2.77;;
35294;SDS011;21413;48.032;7.764;2023-03-19T17:59:22;3.70;;;3.13;;
35294;SDS011;21413;48.032;7.764;2023-03-19T18:01:48;3.43;;;2.40;;
35294;SDS011;21413;48.032;7.764;2023-03-19T18:04:15;2.97;;;2.00;;
35294;SDS011;21413;48.032;7.764;2023-03-19T18:06:52;1.60;;;1.50;;
35294;SDS011;21413;48.032;7.764;2023-03-19T18:09:20;1.30;;;1.30;;
35294;SDS011;21413;48.032;7.764;2023-03-19T18:11:46;2.40;;;1.53;;
35294;SDS011;21413;48.032;7.764;2023-03-19T18:14:12;0.70;;;0.70;;
35294;SDS011;21413;48.032;7.764;2023-03-19T18:16:41;0.60;;;0.60;;
35294;SDS011;21413;48.032;7.764;2023-03-19T18:21:47;0.53;;;0.53;;
35294;SDS011;21413;48.032;7.764;2023-03-19T18:24:13;0.97;;;0.50;;
35294;SDS011;21413;48.032;7.764;2023-03-19T18:26:39;0.70;;;0.70;;
35294;SDS011;21413;48.032;7.764;2023-03-19T18:29:05;0.47;;;0.47;;
35294;SDS011;21413;48.032;7.764;2023-03-19T18:31:31;1.90;;;1.50;;
35294;SDS011;21413;48.032;7.764;2023-03-19T18:34:01;1.03;;;1.03;;
35294;SDS011;21413;48.032;7.764;2023-03-19T18:36:29;3.33;;;0.63;;
35294;SDS011;21413;48.032;7.764;2023-03-19T18:38:56;1.80;;;0.53;;
35294;SDS011;21413;48.032;7.764;2023-03-19T18:41:22;0.50;;;0.50;;
35294;SDS011;21413;48.032;7.764;2023-03-19T18:43:49;0.50;;;0.50;;
35294;SDS011;21413;48.032;7.764;2023-03-19T18:46:25;0.40;;;0.40;;
35294;SDS011;21413;48.032;7.764;2023-03-19T18:48:56;0.70;;;0.70;;
35294;SDS011;21413;48.032;7.764;2023-03-19T18:51:23;4.33;;;0.90;;